sensor_id;sensor_type;location;lat;lon;timestamp;temperature;humidity
2749;DHT22;1382;52.142;11.618;2022-07-29T00:00:24;22.30;32.80
2749;DHT22;1382;52.142;11.618;2022-07-29T00:02:51;22.20;33.00
2749;DHT22;1382;52.142;11.618;2022-07-29T00:05:17;22.20;33.10
2749;DHT22;1382;52.142;11.618;2022-07-29T00:07:44;22.20;33.00
2749;DHT22;1382;52.142;11.618;2022-07-29T00:10:12;22.10;33.70
2749;DHT22;1382;52.142;11.618;2022-07-29T00:12:39;22.10;33.30
2749;DHT22;1382;52.142;11.618;2022-07-29T00:15:07;22.00;33.50
2749;DHT22;1382;52.142;11.618;2022-07-29T00:17:34;22.00;34.40
2749;DHT22;1382;52.142;11.618;2022-07-29T00:20:01;21.90;34.20
2749;DHT22;1382;52.142;11.618;2022-07-29T00:22:27;21.90;33.50
2749;DHT22;1382;52.142;11.618;2022-07-29T00:24:54;21.90;34.30
2749;DHT22;1382;52.142;11.618;2022-07-29T00:27:22;21.90;34.00
2749;DHT22;1382;52.142;11.618;2022-07-29T00:29:49;21.80;34.10
2749;DHT22;1382;52.142;11.618;2022-07-29T00:32:16;21.80;34.70
2749;DHT22;1382;52.142;11.618;2022-07-29T00:34:43;21.70;34.60
2749;DHT22;1382;52.142;11.618;2022-07-29T00:37:09;21.70;34.00
2749;DHT22;1382;52.142;11.618;2022-07-29T00:39:36;21.80;34.30
2749;DHT22;1382;52.142;11.618;2022-07-29T00:42:03;21.70;34.10
2749;DHT22;1382;52.142;11.618;2022-07-29T00:44:36;21.60;33.70
2749;DHT22;1382;52.142;11.618;2022-07-29T00:47:03;21.60;33.70
2749;DHT22;1382;52.142;11.618;2022-07-29T00:49:30;21.60;33.30
2749;DHT22;1382;52.142;11.618;2022-07-29T00:51:57;21.60;33.70
2749;DHT22;1382;52.142;11.618;2022-07-29T00:54:24;21.50;33.20
2749;DHT22;1382;52.142;11.618;2022-07-29T00:56:50;21.50;33.50
2749;DHT22;1382;52.142;11.618;2022-07-29T00:59:17;21.50;33.00
2749;DHT22;1382;52.142;11.618;2022-07-29T01:01:45;21.50;33.40
2749;DHT22;1382;52.142;11.618;2022-07-29T01:04:12;21.50;34.10
2749;DHT22;1382;52.142;11.618;2022-07-29T01:06:40;21.40;33.30
2749;DHT22;1382;52.142;11.618;2022-07-29T01:09:07;21.50;33.90
2749;DHT22;1382;52.142;11.618;2022-07-29T01:11:34;21.50;34.60
2749;DHT22;1382;52.142;11.618;2022-07-29T01:14:01;21.50;35.00
2749;DHT22;1382;52.142;11.618;2022-07-29T01:16:31;21.50;35.90
2749;DHT22;1382;52.142;11.618;2022-07-29T01:19:06;21.50;36.10
2749;DHT22;1382;52.142;11.618;2022-07-29T01:21:49;21.50;35.40
2749;DHT22;1382;52.142;11.618;2022-07-29T01:24:39;21.50;36.00
2749;DHT22;1382;52.142;11.618;2022-07-29T01:27:22;21.40;35.80
2749;DHT22;1382;52.142;11.618;2022-07-29T01:29:55;21.40;35.40
2749;DHT22;1382;52.142;11.618;2022-07-29T01:32:26;21.40;35.20
2749;DHT22;1382;52.142;11.618;2022-07-29T01:34:58;21.40;35.50
2749;DHT22;1382;52.142;11.618;2022-07-29T01:37:34;21.40;35.70
2749;DHT22;1382;52.142;11.618;2022-07-29T01:40:03;21.40;35.60
2749;DHT22;1382;52.142;11.618;2022-07-29T01:42:35;21.30;34.80
2749;DHT22;1382;52.142;11.618;2022-07-29T01:45:10;21.30;35.60
2749;DHT22;1382;52.142;11.618;2022-07-29T01:47:41;21.30;36.00
2749;DHT22;1382;52.142;11.618;2022-07-29T01:50:12;21.30;36.00
2749;DHT22;1382;52.142;11.618;2022-07-29T01:52:45;21.20;35.30
2749;DHT22;1382;52.142;11.618;2022-07-29T01:55:15;21.30;34.10
2749;DHT22;1382;52.142;11.618;2022-07-29T01:57:46;21.20;34.90
2749;DHT22;1382;52.142;11.618;2022-07-29T02:00:16;21.20;35.60
2749;DHT22;1382;52.142;11.618;2022-07-29T02:02:45;21.10;35.60
2749;DHT22;1382;52.142;11.618;2022-07-29T02:05:15;21.10;35.90
2749;DHT22;1382;52.142;11.618;2022-07-29T02:07:44;21.10;35.90
2749;DHT22;1382;52.142;11.618;2022-07-29T02:10:13;21.00;35.60
2749;DHT22;1382;52.142;11.618;2022-07-29T02:12:42;21.00;36.50
2749;DHT22;1382;52.142;11.618;2022-07-29T02:15:18;21.00;34.40
2749;DHT22;1382;52.142;11.618;2022-07-29T02:17:49;20.90;34.20
2749;DHT22;1382;52.142;11.618;2022-07-29T02:20:17;20.90;33.90
2749;DHT22;1382;52.142;11.618;2022-07-29T02:22:44;20.90;34.30
2749;DHT22;1382;52.142;11.618;2022-07-29T02:25:12;20.90;35.00
2749;DHT22;1382;52.142;11.618;2022-07-29T02:27:41;20.80;34.70
2749;DHT22;1382;52.142;11.618;2022-07-29T02:30:08;20.80;35.50
2749;DHT22;1382;52.142;11.618;2022-07-29T02:32:38;20.80;35.60
2749;DHT22;1382;52.142;11.618;2022-07-29T02:35:07;20.80;34.70
2749;DHT22;1382;52.142;11.618;2022-07-29T02:37:35;20.70;35.70
2749;DHT22;1382;52.142;11.618;2022-07-29T02:40:03;20.70;36.00
2749;DHT22;1382;52.142;11.618;2022-07-29T02:42:32;20.70;35.80
2749;DHT22;1382;52.142;11.618;2022-07-29T02:44:59;20.70;36.10
2749;DHT22;1382;52.142;11.618;2022-07-29T02:47:32;20.60;35.10
2749;DHT22;1382;52.142;11.618;2022-07-29T02:50:12;20.70;36.20
2749;DHT22;1382;52.142;11.618;2022-07-29T02:52:42;20.60;36.30
2749;DHT22;1382;52.142;11.618;2022-07-29T02:55:15;20.60;36.60
2749;DHT22;1382;52.142;11.618;2022-07-29T02:57:44;20.60;37.00
2749;DHT22;1382;52.142;11.618;2022-07-29T03:00:21;20.60;36.70
2749;DHT22;1382;52.142;11.618;2022-07-29T03:02:52;20.60;35.90
2749;DHT22;1382;52.142;11.618;2022-07-29T03:05:22;20.60;37.10
2749;DHT22;1382;52.142;11.618;2022-07-29T03:07:54;20.50;36.70
2749;DHT22;1382;52.142;11.618;2022-07-29T03:10:21;20.50;36.90
2749;DHT22;1382;52.142;11.618;2022-07-29T03:12:49;20.50;36.70
2749;DHT22;1382;52.142;11.618;2022-07-29T03:15:16;20.50;35.80
2749;DHT22;1382;52.142;11.618;2022-07-29T03:17:44;20.50;35.40
2749;DHT22;1382;52.142;11.618;2022-07-29T03:20:11;20.50;35.50
2749;DHT22;1382;52.142;11.618;2022-07-29T03:22:41;20.40;36.10
2749;DHT22;1382;52.142;11.618;2022-07-29T03:25:08;20.40;36.70
2749;DHT22;1382;52.142;11.618;2022-07-29T03:27:35;20.40;36.20
2749;DHT22;1382;52.142;11.618;2022-07-29T03:30:03;20.40;36.70
2749;DHT22;1382;52.142;11.618;2022-07-29T03:32:33;20.40;35.80
2749;DHT22;1382;52.142;11.618;2022-07-29T03:35:01;20.40;36.40
2749;DHT22;1382;52.142;11.618;2022-07-29T03:37:28;20.40;36.70
2749;DHT22;1382;52.142;11.618;2022-07-29T03:39:57;20.30;36.00
2749;DHT22;1382;52.142;11.618;2022-07-29T03:42:26;20.40;36.80
2749;DHT22;1382;52.142;11.618;2022-07-29T03:45:03;20.30;37.00
2749;DHT22;1382;52.142;11.618;2022-07-29T03:47:33;20.30;36.80
2749;DHT22;1382;52.142;11.618;2022-07-29T03:50:17;20.30;36.40
2749;DHT22;1382;52.142;11.618;2022-07-29T03:52:45;20.30;36.60
2749;DHT22;1382;52.142;11.618;2022-07-29T03:55:14;20.20;37.50
2749;DHT22;1382;52.142;11.618;2022-07-29T03:57:42;20.30;36.10
2749;DHT22;1382;52.142;11.618;2022-07-29T04:00:10;20.30;36.60
2749;DHT22;1382;52.142;11.618;2022-07-29T04:02:38;20.30;36.50
2749;DHT22;1382;52.142;11.618;2022-07-29T04:05:11;20.20;35.90
2749;DHT22;1382;52.142;11.618;2022-07-29T04:07:38;20.20;37.40
2749;DHT22;1382;52.142;11.618;2022-07-29T04:10:06;20.20;37.00
2749;DHT22;1382;52.142;11.618;2022-07-29T04:12:34;20.20;36.20
2749;DHT22;1382;52.142;11.618;2022-07-29T04:15:01;20.40;37.30
2749;DHT22;1382;52.142;11.618;2022-07-29T04:17:28;20.20;35.90
2749;DHT22;1382;52.142;11.618;2022-07-29T04:19:55;20.20;35.80
2749;DHT22;1382;52.142;11.618;2022-07-29T04:22:22;20.20;35.90
2749;DHT22;1382;52.142;11.618;2022-07-29T04:24:50;20.20;36.10
2749;DHT22;1382;52.142;11.618;2022-07-29T04:27:17;20.30;36.10
2749;DHT22;1382;52.142;11.618;2022-07-29T04:29:47;20.30;36.40
2749;DHT22;1382;52.142;11.618;2022-07-29T04:32:23;20.30;37.10
2749;DHT22;1382;52.142;11.618;2022-07-29T04:34:50;20.30;36.10
2749;DHT22;1382;52.142;11.618;2022-07-29T04:37:17;20.30;36.90
2749;DHT22;1382;52.142;11.618;2022-07-29T04:39:44;20.30;37.10
2749;DHT22;1382;52.142;11.618;2022-07-29T04:42:11;20.30;36.60
2749;DHT22;1382;52.142;11.618;2022-07-29T04:44:38;20.30;36.70
2749;DHT22;1382;52.142;11.618;2022-07-29T04:47:10;20.30;36.50
2749;DHT22;1382;52.142;11.618;2022-07-29T04:49:38;20.40;36.60
2749;DHT22;1382;52.142;11.618;2022-07-29T04:52:05;20.40;37.40
2749;DHT22;1382;52.142;11.618;2022-07-29T04:54:32;20.40;36.70
2749;DHT22;1382;52.142;11.618;2022-07-29T04:56:59;20.40;37.20
2749;DHT22;1382;52.142;11.618;2022-07-29T04:59:25;20.40;37.50
2749;DHT22;1382;52.142;11.618;2022-07-29T05:01:52;20.40;37.50
2749;DHT22;1382;52.142;11.618;2022-07-29T05:04:20;20.40;37.90
2749;DHT22;1382;52.142;11.618;2022-07-29T05:06:47;20.50;37.90
2749;DHT22;1382;52.142;11.618;2022-07-29T05:09:14;20.60;38.00
2749;DHT22;1382;52.142;11.618;2022-07-29T05:11:41;20.50;37.80
2749;DHT22;1382;52.142;11.618;2022-07-29T05:14:08;20.50;38.10
2749;DHT22;1382;52.142;11.618;2022-07-29T05:16:35;20.60;38.20
2749;DHT22;1382;52.142;11.618;2022-07-29T05:19:01;20.60;38.20
2749;DHT22;1382;52.142;11.618;2022-07-29T05:21:29;20.60;38.70
2749;DHT22;1382;52.142;11.618;2022-07-29T05:23:56;20.70;38.60
2749;DHT22;1382;52.142;11.618;2022-07-29T05:26:23;20.70;39.00
2749;DHT22;1382;52.142;11.618;2022-07-29T05:28:50;20.80;38.60
2749;DHT22;1382;52.142;11.618;2022-07-29T05:31:16;20.70;38.30
2749;DHT22;1382;52.142;11.618;2022-07-29T05:33:43;20.80;38.40
2749;DHT22;1382;52.142;11.618;2022-07-29T05:36:10;20.90;38.50
2749;DHT22;1382;52.142;11.618;2022-07-29T05:38:38;20.90;38.30
2749;DHT22;1382;52.142;11.618;2022-07-29T05:41:05;21.00;38.70
2749;DHT22;1382;52.142;11.618;2022-07-29T05:43:32;21.00;38.90
2749;DHT22;1382;52.142;11.618;2022-07-29T05:45:59;21.00;38.30
2749;DHT22;1382;52.142;11.618;2022-07-29T05:48:26;21.00;38.50
2749;DHT22;1382;52.142;11.618;2022-07-29T05:50:54;21.10;39.10
2749;DHT22;1382;52.142;11.618;2022-07-29T05:53:20;21.20;39.00
2749;DHT22;1382;52.142;11.618;2022-07-29T05:55:49;21.20;39.00
2749;DHT22;1382;52.142;11.618;2022-07-29T05:58:16;21.30;38.50
2749;DHT22;1382;52.142;11.618;2022-07-29T06:00:43;21.40;39.30
2749;DHT22;1382;52.142;11.618;2022-07-29T06:03:10;21.50;38.70
2749;DHT22;1382;52.142;11.618;2022-07-29T06:05:37;21.50;38.50
2749;DHT22;1382;52.142;11.618;2022-07-29T06:08:04;21.60;38.70
2749;DHT22;1382;52.142;11.618;2022-07-29T06:10:31;21.70;38.30
2749;DHT22;1382;52.142;11.618;2022-07-29T06:12:59;21.80;38.60
2749;DHT22;1382;52.142;11.618;2022-07-29T06:15:31;21.90;38.40
2749;DHT22;1382;52.142;11.618;2022-07-29T06:18:08;21.90;38.90
2749;DHT22;1382;52.142;11.618;2022-07-29T06:20:37;21.90;38.00
2749;DHT22;1382;52.142;11.618;2022-07-29T06:23:04;22.00;38.30
2749;DHT22;1382;52.142;11.618;2022-07-29T06:25:31;22.10;37.90
2749;DHT22;1382;52.142;11.618;2022-07-29T06:27:59;22.20;38.10
2749;DHT22;1382;52.142;11.618;2022-07-29T06:30:26;22.20;38.10
2749;DHT22;1382;52.142;11.618;2022-07-29T06:32:53;22.30;38.20
2749;DHT22;1382;52.142;11.618;2022-07-29T06:35:19;22.40;38.40
2749;DHT22;1382;52.142;11.618;2022-07-29T06:38:06;22.40;39.00
2749;DHT22;1382;52.142;11.618;2022-07-29T06:40:53;22.50;38.30
2749;DHT22;1382;52.142;11.618;2022-07-29T06:43:21;22.60;38.30
2749;DHT22;1382;52.142;11.618;2022-07-29T06:45:48;22.70;38.30
2749;DHT22;1382;52.142;11.618;2022-07-29T06:48:15;22.80;38.30
2749;DHT22;1382;52.142;11.618;2022-07-29T06:50:41;22.90;38.00
2749;DHT22;1382;52.142;11.618;2022-07-29T06:53:08;23.10;37.80
2749;DHT22;1382;52.142;11.618;2022-07-29T06:55:35;23.10;37.80
2749;DHT22;1382;52.142;11.618;2022-07-29T06:58:02;23.20;37.90
2749;DHT22;1382;52.142;11.618;2022-07-29T07:00:30;23.30;37.50
2749;DHT22;1382;52.142;11.618;2022-07-29T07:02:57;23.40;37.70
2749;DHT22;1382;52.142;11.618;2022-07-29T07:05:23;23.50;38.50
2749;DHT22;1382;52.142;11.618;2022-07-29T07:07:50;23.60;37.70
2749;DHT22;1382;52.142;11.618;2022-07-29T07:10:18;23.50;38.10
2749;DHT22;1382;52.142;11.618;2022-07-29T07:12:45;23.60;37.40
2749;DHT22;1382;52.142;11.618;2022-07-29T07:15:11;23.70;37.10
2749;DHT22;1382;52.142;11.618;2022-07-29T07:17:40;23.70;37.00
2749;DHT22;1382;52.142;11.618;2022-07-29T07:20:07;23.80;37.20
2749;DHT22;1382;52.142;11.618;2022-07-29T07:22:34;23.80;37.20
2749;DHT22;1382;52.142;11.618;2022-07-29T07:25:05;23.80;37.10
2749;DHT22;1382;52.142;11.618;2022-07-29T07:27:32;23.80;36.90
2749;DHT22;1382;52.142;11.618;2022-07-29T07:29:59;23.90;37.00
2749;DHT22;1382;52.142;11.618;2022-07-29T07:32:25;24.00;37.20
2749;DHT22;1382;52.142;11.618;2022-07-29T07:34:54;24.00;37.10
2749;DHT22;1382;52.142;11.618;2022-07-29T07:37:21;24.10;37.10
2749;DHT22;1382;52.142;11.618;2022-07-29T07:39:47;24.20;37.30
2749;DHT22;1382;52.142;11.618;2022-07-29T07:42:14;24.30;37.50
2749;DHT22;1382;52.142;11.618;2022-07-29T07:44:41;24.30;37.30
2749;DHT22;1382;52.142;11.618;2022-07-29T07:47:28;24.40;36.90
2749;DHT22;1382;52.142;11.618;2022-07-29T07:49:56;24.50;36.50
2749;DHT22;1382;52.142;11.618;2022-07-29T07:52:23;24.50;36.50
2749;DHT22;1382;52.142;11.618;2022-07-29T07:54:50;24.60;37.30
2749;DHT22;1382;52.142;11.618;2022-07-29T07:57:17;24.60;36.60
2749;DHT22;1382;52.142;11.618;2022-07-29T07:59:43;24.70;36.60
2749;DHT22;1382;52.142;11.618;2022-07-29T08:02:10;24.70;36.50
2749;DHT22;1382;52.142;11.618;2022-07-29T08:04:37;24.70;36.40
2749;DHT22;1382;52.142;11.618;2022-07-29T08:07:06;24.80;36.30
2749;DHT22;1382;52.142;11.618;2022-07-29T08:09:33;24.90;36.60
2749;DHT22;1382;52.142;11.618;2022-07-29T08:12:00;24.90;36.40
2749;DHT22;1382;52.142;11.618;2022-07-29T08:14:27;25.00;36.30
2749;DHT22;1382;52.142;11.618;2022-07-29T08:16:54;25.10;36.60
2749;DHT22;1382;52.142;11.618;2022-07-29T08:19:21;25.20;36.20
2749;DHT22;1382;52.142;11.618;2022-07-29T08:21:49;25.20;36.10
2749;DHT22;1382;52.142;11.618;2022-07-29T08:24:18;25.20;35.90
2749;DHT22;1382;52.142;11.618;2022-07-29T08:26:45;25.30;36.20
2749;DHT22;1382;52.142;11.618;2022-07-29T08:29:12;25.40;36.10
2749;DHT22;1382;52.142;11.618;2022-07-29T08:31:45;25.50;36.30
2749;DHT22;1382;52.142;11.618;2022-07-29T08:34:12;25.70;36.10
2749;DHT22;1382;52.142;11.618;2022-07-29T08:36:39;25.70;36.20
2749;DHT22;1382;52.142;11.618;2022-07-29T08:39:06;25.80;36.30
2749;DHT22;1382;52.142;11.618;2022-07-29T08:41:34;25.90;36.60
2749;DHT22;1382;52.142;11.618;2022-07-29T08:44:01;26.30;36.40
2749;DHT22;1382;52.142;11.618;2022-07-29T08:46:28;26.30;36.10
2749;DHT22;1382;52.142;11.618;2022-07-29T08:48:55;26.50;36.50
2749;DHT22;1382;52.142;11.618;2022-07-29T08:51:24;26.60;36.20
2749;DHT22;1382;52.142;11.618;2022-07-29T08:53:51;26.80;35.80
2749;DHT22;1382;52.142;11.618;2022-07-29T08:56:20;27.00;35.90
2749;DHT22;1382;52.142;11.618;2022-07-29T08:58:49;27.10;35.70
2749;DHT22;1382;52.142;11.618;2022-07-29T09:01:22;27.30;35.60
2749;DHT22;1382;52.142;11.618;2022-07-29T09:04:05;27.40;35.40
2749;DHT22;1382;52.142;11.618;2022-07-29T09:06:37;27.60;35.20
2749;DHT22;1382;52.142;11.618;2022-07-29T09:09:07;27.70;35.00
2749;DHT22;1382;52.142;11.618;2022-07-29T09:11:34;27.80;35.20
2749;DHT22;1382;52.142;11.618;2022-07-29T09:14:03;28.00;34.80
2749;DHT22;1382;52.142;11.618;2022-07-29T09:16:44;28.10;34.60
2749;DHT22;1382;52.142;11.618;2022-07-29T09:19:21;28.30;34.60
2749;DHT22;1382;52.142;11.618;2022-07-29T09:21:47;28.30;34.50
2749;DHT22;1382;52.142;11.618;2022-07-29T09:24:14;28.40;34.60
2749;DHT22;1382;52.142;11.618;2022-07-29T09:26:42;28.60;34.60
2749;DHT22;1382;52.142;11.618;2022-07-29T09:29:12;28.70;34.00
2749;DHT22;1382;52.142;11.618;2022-07-29T09:31:40;28.80;33.40
2749;DHT22;1382;52.142;11.618;2022-07-29T09:34:08;28.90;33.70
2749;DHT22;1382;52.142;11.618;2022-07-29T09:36:42;29.00;33.20
2749;DHT22;1382;52.142;11.618;2022-07-29T09:39:10;29.20;34.00
2749;DHT22;1382;52.142;11.618;2022-07-29T09:41:45;29.30;33.50
2749;DHT22;1382;52.142;11.618;2022-07-29T09:44:13;29.50;33.00
2749;DHT22;1382;52.142;11.618;2022-07-29T09:46:40;29.60;33.40
2749;DHT22;1382;52.142;11.618;2022-07-29T09:49:08;29.70;33.40
2749;DHT22;1382;52.142;11.618;2022-07-29T09:51:35;30.00;33.30
2749;DHT22;1382;52.142;11.618;2022-07-29T09:54:21;30.00;33.40
2749;DHT22;1382;52.142;11.618;2022-07-29T09:56:48;30.30;33.50
2749;DHT22;1382;52.142;11.618;2022-07-29T09:59:16;30.40;32.90
2749;DHT22;1382;52.142;11.618;2022-07-29T10:01:43;30.40;33.10
2749;DHT22;1382;52.142;11.618;2022-07-29T10:04:10;30.60;32.30
2749;DHT22;1382;52.142;11.618;2022-07-29T10:06:55;30.70;32.20
2749;DHT22;1382;52.142;11.618;2022-07-29T10:09:30;30.90;31.80
2749;DHT22;1382;52.142;11.618;2022-07-29T10:12:08;31.10;31.90
2749;DHT22;1382;52.142;11.618;2022-07-29T10:14:37;31.20;31.30
2749;DHT22;1382;52.142;11.618;2022-07-29T10:17:05;31.30;31.50
2749;DHT22;1382;52.142;11.618;2022-07-29T10:19:33;31.50;31.50
2749;DHT22;1382;52.142;11.618;2022-07-29T10:22:02;31.80;30.50
2749;DHT22;1382;52.142;11.618;2022-07-29T10:24:31;31.80;30.30
2749;DHT22;1382;52.142;11.618;2022-07-29T10:27:00;32.00;30.40
2749;DHT22;1382;52.142;11.618;2022-07-29T10:29:28;32.10;30.10
2749;DHT22;1382;52.142;11.618;2022-07-29T10:32:14;32.30;30.40
2749;DHT22;1382;52.142;11.618;2022-07-29T10:35:03;32.40;29.70
2749;DHT22;1382;52.142;11.618;2022-07-29T10:37:41;32.50;29.30
2749;DHT22;1382;52.142;11.618;2022-07-29T10:40:22;32.70;29.10
2749;DHT22;1382;52.142;11.618;2022-07-29T10:42:52;32.80;29.40
2749;DHT22;1382;52.142;11.618;2022-07-29T10:45:21;32.90;29.10
2749;DHT22;1382;52.142;11.618;2022-07-29T10:48:02;33.00;28.80
2749;DHT22;1382;52.142;11.618;2022-07-29T10:50:54;33.20;28.60
2749;DHT22;1382;52.142;11.618;2022-07-29T10:53:22;33.30;28.50
2749;DHT22;1382;52.142;11.618;2022-07-29T10:55:50;33.40;28.10
2749;DHT22;1382;52.142;11.618;2022-07-29T10:58:21;33.50;28.20
2749;DHT22;1382;52.142;11.618;2022-07-29T11:00:49;33.60;27.80
2749;DHT22;1382;52.142;11.618;2022-07-29T11:03:46;33.80;27.60
2749;DHT22;1382;52.142;11.618;2022-07-29T11:06:16;33.90;27.70
2749;DHT22;1382;52.142;11.618;2022-07-29T11:09:17;33.90;27.40
2749;DHT22;1382;52.142;11.618;2022-07-29T11:11:46;34.10;27.40
2749;DHT22;1382;52.142;11.618;2022-07-29T11:14:17;34.10;27.40
2749;DHT22;1382;52.142;11.618;2022-07-29T11:17:05;34.30;27.40
2749;DHT22;1382;52.142;11.618;2022-07-29T11:19:34;34.40;26.90
2749;DHT22;1382;52.142;11.618;2022-07-29T11:22:01;34.40;26.40
2749;DHT22;1382;52.142;11.618;2022-07-29T11:24:30;34.50;26.60
2749;DHT22;1382;52.142;11.618;2022-07-29T11:27:13;34.60;26.40
2749;DHT22;1382;52.142;11.618;2022-07-29T11:29:52;34.70;25.80
2749;DHT22;1382;52.142;11.618;2022-07-29T11:32:20;34.80;26.00
2749;DHT22;1382;52.142;11.618;2022-07-29T11:35:13;34.90;26.70
2749;DHT22;1382;52.142;11.618;2022-07-29T11:37:44;35.10;26.50
2749;DHT22;1382;52.142;11.618;2022-07-29T11:40:21;35.10;25.80
2749;DHT22;1382;52.142;11.618;2022-07-29T11:42:49;35.20;26.00
2749;DHT22;1382;52.142;11.618;2022-07-29T11:45:23;35.40;25.90
2749;DHT22;1382;52.142;11.618;2022-07-29T11:48:15;35.50;25.90
2749;DHT22;1382;52.142;11.618;2022-07-29T11:50:59;35.70;25.80
2749;DHT22;1382;52.142;11.618;2022-07-29T11:53:26;35.80;25.80
2749;DHT22;1382;52.142;11.618;2022-07-29T11:55:59;35.90;25.70
2749;DHT22;1382;52.142;11.618;2022-07-29T11:58:27;36.10;26.00
2749;DHT22;1382;52.142;11.618;2022-07-29T12:00:54;36.20;25.60
2749;DHT22;1382;52.142;11.618;2022-07-29T12:03:25;36.30;25.50
2749;DHT22;1382;52.142;11.618;2022-07-29T12:06:04;36.50;25.40
2749;DHT22;1382;52.142;11.618;2022-07-29T12:08:40;36.60;25.30
2749;DHT22;1382;52.142;11.618;2022-07-29T12:11:16;36.60;25.00
2749;DHT22;1382;52.142;11.618;2022-07-29T12:13:46;36.70;25.50
2749;DHT22;1382;52.142;11.618;2022-07-29T12:16:15;36.80;24.70
2749;DHT22;1382;52.142;11.618;2022-07-29T12:18:57;36.80;24.50
2749;DHT22;1382;52.142;11.618;2022-07-29T12:21:26;36.80;23.70
2749;DHT22;1382;52.142;11.618;2022-07-29T12:23:56;36.80;24.20
2749;DHT22;1382;52.142;11.618;2022-07-29T12:26:27;36.90;23.90
2749;DHT22;1382;52.142;11.618;2022-07-29T12:28:54;36.80;22.70
2749;DHT22;1382;52.142;11.618;2022-07-29T12:31:22;36.90;23.90
2749;DHT22;1382;52.142;11.618;2022-07-29T12:34:09;36.90;23.50
2749;DHT22;1382;52.142;11.618;2022-07-29T12:36:37;36.90;23.60
2749;DHT22;1382;52.142;11.618;2022-07-29T12:39:04;37.00;23.20
2749;DHT22;1382;52.142;11.618;2022-07-29T12:41:31;37.10;24.00
2749;DHT22;1382;52.142;11.618;2022-07-29T12:43:58;37.20;24.00
2749;DHT22;1382;52.142;11.618;2022-07-29T12:46:25;37.30;23.90
2749;DHT22;1382;52.142;11.618;2022-07-29T12:48:53;37.30;23.80
2749;DHT22;1382;52.142;11.618;2022-07-29T12:51:28;37.50;23.30
2749;DHT22;1382;52.142;11.618;2022-07-29T12:54:05;37.60;23.70
2749;DHT22;1382;52.142;11.618;2022-07-29T12:56:33;37.70;22.60
2749;DHT22;1382;52.142;11.618;2022-07-29T12:59:14;37.90;22.30
2749;DHT22;1382;52.142;11.618;2022-07-29T13:01:41;37.90;23.20
2749;DHT22;1382;52.142;11.618;2022-07-29T13:04:08;37.90;23.50
2749;DHT22;1382;52.142;11.618;2022-07-29T13:06:39;38.00;23.10
2749;DHT22;1382;52.142;11.618;2022-07-29T13:09:10;38.20;23.70
2749;DHT22;1382;52.142;11.618;2022-07-29T13:11:39;38.10;22.20
2749;DHT22;1382;52.142;11.618;2022-07-29T13:14:16;38.10;23.20
2749;DHT22;1382;52.142;11.618;2022-07-29T13:17:04;38.10;23.40
2749;DHT22;1382;52.142;11.618;2022-07-29T13:19:36;38.10;23.20
2749;DHT22;1382;52.142;11.618;2022-07-29T13:22:03;38.20;23.40
2749;DHT22;1382;52.142;11.618;2022-07-29T13:24:32;38.10;22.60
2749;DHT22;1382;52.142;11.618;2022-07-29T13:26:59;38.10;23.10
2749;DHT22;1382;52.142;11.618;2022-07-29T13:29:26;38.00;22.50
2749;DHT22;1382;52.142;11.618;2022-07-29T13:31:57;37.90;22.30
2749;DHT22;1382;52.142;11.618;2022-07-29T13:34:25;37.90;21.80
2749;DHT22;1382;52.142;11.618;2022-07-29T13:36:51;37.90;21.30
2749;DHT22;1382;52.142;11.618;2022-07-29T13:39:18;37.90;22.50
2749;DHT22;1382;52.142;11.618;2022-07-29T13:41:46;37.80;22.90
2749;DHT22;1382;52.142;11.618;2022-07-29T13:44:14;37.90;21.90
2749;DHT22;1382;52.142;11.618;2022-07-29T13:46:41;37.80;22.90
2749;DHT22;1382;52.142;11.618;2022-07-29T13:49:08;37.80;23.50
2749;DHT22;1382;52.142;11.618;2022-07-29T13:51:35;37.80;23.20
2749;DHT22;1382;52.142;11.618;2022-07-29T13:54:01;37.70;23.20
2749;DHT22;1382;52.142;11.618;2022-07-29T13:56:28;37.70;22.30
2749;DHT22;1382;52.142;11.618;2022-07-29T13:58:56;37.60;22.10
2749;DHT22;1382;52.142;11.618;2022-07-29T14:01:23;37.50;22.60
2749;DHT22;1382;52.142;11.618;2022-07-29T14:03:50;37.50;22.30
2749;DHT22;1382;52.142;11.618;2022-07-29T14:06:17;37.40;22.30
2749;DHT22;1382;52.142;11.618;2022-07-29T14:08:47;37.40;22.30
2749;DHT22;1382;52.142;11.618;2022-07-29T14:11:14;37.40;22.40
2749;DHT22;1382;52.142;11.618;2022-07-29T14:13:41;37.30;22.00
2749;DHT22;1382;52.142;11.618;2022-07-29T14:16:09;37.30;21.00
2749;DHT22;1382;52.142;11.618;2022-07-29T14:18:36;37.30;21.60
2749;DHT22;1382;52.142;11.618;2022-07-29T14:21:03;37.30;23.10
2749;DHT22;1382;52.142;11.618;2022-07-29T14:23:29;37.30;22.10
2749;DHT22;1382;52.142;11.618;2022-07-29T14:25:56;37.30;22.70
2749;DHT22;1382;52.142;11.618;2022-07-29T14:28:23;37.30;23.00
2749;DHT22;1382;52.142;11.618;2022-07-29T14:30:50;37.30;22.50
2749;DHT22;1382;52.142;11.618;2022-07-29T14:33:18;37.30;22.00
2749;DHT22;1382;52.142;11.618;2022-07-29T14:35:45;37.30;22.90
2749;DHT22;1382;52.142;11.618;2022-07-29T14:38:11;37.30;22.10
2749;DHT22;1382;52.142;11.618;2022-07-29T14:40:38;37.20;21.90
2749;DHT22;1382;52.142;11.618;2022-07-29T14:43:05;37.20;21.80
2749;DHT22;1382;52.142;11.618;2022-07-29T14:45:32;37.10;22.10
2749;DHT22;1382;52.142;11.618;2022-07-29T14:47:59;37.10;21.90
2749;DHT22;1382;52.142;11.618;2022-07-29T14:50:27;37.10;21.80
2749;DHT22;1382;52.142;11.618;2022-07-29T14:52:57;37.10;21.90
2749;DHT22;1382;52.142;11.618;2022-07-29T14:55:24;37.00;22.20
2749;DHT22;1382;52.142;11.618;2022-07-29T14:57:51;37.00;22.40
2749;DHT22;1382;52.142;11.618;2022-07-29T15:00:26;36.90;22.00
2749;DHT22;1382;52.142;11.618;2022-07-29T15:02:53;36.80;21.70
2749;DHT22;1382;52.142;11.618;2022-07-29T15:05:30;36.80;22.40
2749;DHT22;1382;52.142;11.618;2022-07-29T15:07:57;36.70;22.40
2749;DHT22;1382;52.142;11.618;2022-07-29T15:10:23;36.60;22.10
2749;DHT22;1382;52.142;11.618;2022-07-29T15:12:52;36.60;22.80
2749;DHT22;1382;52.142;11.618;2022-07-29T15:15:19;36.50;22.50
2749;DHT22;1382;52.142;11.618;2022-07-29T15:17:46;36.50;22.00
2749;DHT22;1382;52.142;11.618;2022-07-29T15:20:13;36.40;23.20
2749;DHT22;1382;52.142;11.618;2022-07-29T15:22:41;36.50;23.30
2749;DHT22;1382;52.142;11.618;2022-07-29T15:25:09;36.40;23.10
2749;DHT22;1382;52.142;11.618;2022-07-29T15:27:36;36.30;22.80
2749;DHT22;1382;52.142;11.618;2022-07-29T15:30:04;36.20;23.50
2749;DHT22;1382;52.142;11.618;2022-07-29T15:32:30;36.20;24.00
2749;DHT22;1382;52.142;11.618;2022-07-29T15:34:57;36.20;23.90
2749;DHT22;1382;52.142;11.618;2022-07-29T15:37:24;36.10;22.80
2749;DHT22;1382;52.142;11.618;2022-07-29T15:39:52;36.10;23.90
2749;DHT22;1382;52.142;11.618;2022-07-29T15:42:25;36.10;25.70
2749;DHT22;1382;52.142;11.618;2022-07-29T15:44:52;36.10;25.00
2749;DHT22;1382;52.142;11.618;2022-07-29T15:47:18;36.10;24.10
2749;DHT22;1382;52.142;11.618;2022-07-29T15:49:45;36.10;23.40
2749;DHT22;1382;52.142;11.618;2022-07-29T15:52:16;36.20;23.10
2749;DHT22;1382;52.142;11.618;2022-07-29T15:54:43;36.20;24.70
2749;DHT22;1382;52.142;11.618;2022-07-29T15:57:11;36.20;23.80
2749;DHT22;1382;52.142;11.618;2022-07-29T15:59:38;36.20;23.60